Terminal Aerodrome Forecast
Issued by NWS

Home | Current Version | Previous Version | Text Only | Print | Product List | Glossary On
Versions: 1 2 3 4 5 6 7 8 9 10 11 12 13 14 15 16 17 18
000
FTUS44 KLZK 021100
TAFADF
TAF
KADF 021120Z 0212/0312 17005KT 5SM BR OVC015
      TEMPO 0212/0214 OVC009
     FM021400 16006KT P6SM BKN025 OVC050
     FM021800 18008G16KT P6SM VCTS BKN050CB
      TEMPO 0300/0303 27015G25KT 2SM +TSRA BR BKN015CB
     FM030500 27008KT 5SM BR VCSH OVC025
     FM031000 29010KT P6SM OVC050=

USA.gov is the U.S. government's official web portal to all federal, state and local government web resources and services.